Sunday, August 19, 2018, 12:24 AM GMT
Back to Local

CYWA, Petawawa, Ont.

Location: , , Canada Lat: 45.95
Local Time: 12:24 AM GMT ( 0:24 GMT) Lon: -77.317
Time Zone: GMT Elev: 426 ft

Show me the last for .
Show Decoded

2018-08-19 00:00 METAR CYWA 190000Z AUTO 33004KT 9SM CLR 22/15 A2997 RMK SLP149 =
2018-08-18 23:00 METAR CYWA 182300Z AUTO 33005KT 9SM CLR 24/15 A2996 RMK SLP148 =
2018-08-18 22:00 METAR CYWA 182200Z AUTO 01005KT 340V060 9SM FEW045 FEW050 25/15 A2996 RMK SLP146
                 =
2018-08-18 21:00 METAR CYWA 182100Z AUTO 35005KT 9SM FEW048 FEW057 FEW097 25/15 A2996 RMK SLP145
                 =
2018-08-18 20:00 METAR CYWA 182000Z AUTO 32007KT 290V010 9SM FEW035 SCT050 24/15 A2996 RMK SLP146
                 =
2018-08-18 19:00 METAR CYWA 181900Z AUTO 30005KT 240V020 9SM FEW032 FEW087 23/16 A2997 RMK SLP150
                 =
2018-08-18 18:00 METAR CYWA 181800Z AUTO 33007KT 310V030 9SM FEW025 FEW037 22/15 A2998 RMK SLP154
                 =
2018-08-18 17:15 METAR CYWA 181715Z AUTO 36007KT 9SM OVC028 21/15 A2999
2018-08-18 17:08 METAR CYWA 181708Z AUTO 34009KT 320V030 9SM OVC023 21/15 A3000 =
2018-08-18 17:00 METAR CYWA 181700Z AUTO 34008KT 9SM FEW023 OVC028 21/15 A3000 RMK SLP159 =
2018-08-18 16:16 METAR CYWA 181616Z AUTO 35010KT 9SM OVC025 20/15 A3000 =
2018-08-18 16:00 METAR CYWA 181600Z AUTO 33009KT 9SM OVC021 21/15 A3000 RMK SLP162 =
2018-08-18 15:00 METAR CYWA 181500Z AUTO 36007KT 9SM OVC021 20/15 A3001 RMK SLP163 =
2018-08-18 14:00 METAR CYWA 181400Z AUTO 34009KT 9SM OVC016 19/16 A3000 RMK SLP161 =
2018-08-18 13:38 METAR CYWA 181338Z AUTO 35007KT 9SM OVC016 OVC083 19/16 A3000 =
2018-08-18 13:00 METAR CYWA 181300Z AUTO 34006KT 9SM OVC014 OVC083 19/16 A3000 RMK SLP160 =
2018-08-18 12:36 METAR CYWA 181236Z AUTO 35007KT 9SM OVC014 18/16 A3001 =
2018-08-18 12:04 METAR CYWA 181204Z AUTO 35009KT 9SM FEW017 OVC023 OVC094 18/16 A3000 =
2018-08-18 12:00 METAR CYWA 181200Z AUTO 34007KT 9SM OVC025 OVC094 18/16 A3000 RMK SLP161 =
2018-08-18 11:41 METAR CYWA 181141Z AUTO 34007KT 9SM FEW016 BKN025 BKN094 18/16 A3000 =
2018-08-18 11:31 METAR CYWA 181131Z AUTO 33007KT 9SM BKN016 BKN094 18/16 A3000 =
2018-08-18 11:00 METAR CYWA 181100Z AUTO 35005KT 9SM OVC014 OVC026 18/16 A3000 RMK SLP159 =
2018-08-18 10:45 METAR CYWA 181045Z AUTO 34006KT 9SM OVC014 OVC024 18/16 A2999 =
2018-08-18 10:00 METAR CYWA 181000Z AUTO 34005KT 9SM BKN016 BKN059 18/17 A2998 RMK SLP153 =
2018-08-18 09:11 METAR CYWA 180911Z AUTO 29005KT 280V340 9SM BKN016 18/17 A2997 =
2018-08-18 09:00 METAR CYWA 180900Z AUTO 34005KT 9SM SCT016 18/17 A2997 RMK SLP150 =
2018-08-18 08:55 METAR CYWA 180855Z AUTO 35004KT 9SM SCT016 18/17 A2997 =
2018-08-18 08:36 METAR CYWA 180836Z AUTO 33005KT 9SM BKN014 18/17 A2996 =
2018-08-18 08:25 METAR CYWA 180825Z AUTO 32005KT 9SM BKN016 18/17 A2996 =
2018-08-18 08:00 METAR CYWA 180800Z AUTO 32006KT 9SM FEW018 18/16 A2995 RMK SLP144 =
2018-08-18 07:00 METAR CYWA 180700Z AUTO 00000KT 9SM CLR 18/17 A2995 RMK SLP142 =
2018-08-18 06:00 METAR CYWA 180600Z AUTO 00000KT 9SM CLR 18/17 A2995 RMK SLP142 =
2018-08-18 05:00 METAR CYWA 180500Z AUTO 33002KT 9SM CLR 19/18 A2995 RMK SLP142 =
2018-08-18 04:00 METAR CYWA 180400Z AUTO 00000KT 9SM CLR 18/17 A2994 RMK SLP141 =
2018-08-18 03:00 METAR CYWA 180300Z AUTO 31002KT 9SM CLR 19/18 A2993 RMK SLP138 =
2018-08-18 02:00 METAR CYWA 180200Z AUTO 33002KT 9SM CLR 20/18 A2994 RMK SLP140 =
2018-08-18 01:00 METAR CYWA 180100Z AUTO 35006KT 9SM CLR 21/18 A2992 RMK SLP133 =

Support USWX by starting your Amazon purchase here.